createdAt,value
2023-02-15T00:01:09.852Z,81.18
2023-02-15T00:03:56.353Z,80.92
2023-02-15T00:06:42.034Z,81.59
2023-02-15T00:09:27.640Z,81.05
2023-02-15T00:12:12.996Z,80.99
2023-02-15T00:14:58.611Z,81.34
2023-02-15T00:17:44.321Z,81.27
2023-02-15T00:20:29.940Z,81.40
2023-02-15T00:23:15.893Z,81.39
2023-02-15T00:26:06.400Z,81.54
2023-02-15T00:28:52.324Z,81.43
2023-02-15T00:31:40.783Z,81.05
2023-02-15T00:34:29.992Z,81.39
2023-02-15T00:37:16.032Z,81.61
2023-02-15T00:40:07.040Z,81.46
2023-02-15T00:42:52.792Z,81.29
2023-02-15T00:45:38.177Z,81.19
2023-02-15T00:48:23.652Z,81.04
2023-02-15T00:51:09.059Z,81.25
2023-02-15T00:53:57.210Z,80.71
2023-02-15T00:56:42.692Z,80.97
2023-02-15T00:59:28.461Z,81.01
2023-02-15T01:02:13.957Z,81.24
2023-02-15T01:04:59.406Z,81.66
2023-02-15T01:07:47.872Z,81.54
2023-02-15T01:10:35.955Z,81.84
2023-02-15T01:13:21.947Z,81.70
2023-02-15T01:16:08.578Z,81.57
2023-02-15T01:18:55.605Z,81.97
2023-02-15T01:21:41.761Z,81.76
2023-02-15T01:24:28.972Z,82.22
2023-02-15T01:27:18.100Z,82.41
2023-02-15T01:30:05.665Z,82.46
2023-02-15T01:32:50.845Z,82.25
2023-02-15T01:35:37.765Z,82.58
2023-02-15T01:38:23.107Z,82.56
2023-02-15T01:41:29.016Z,82.56
2023-02-15T01:44:53.545Z,82.62
2023-02-15T01:47:46.450Z,82.27
2023-02-15T01:50:39.313Z,82.58
2023-02-15T01:53:39.528Z,82.23
2023-02-15T01:56:32.011Z,82.17
2023-02-15T01:59:22.163Z,82.35
2023-02-15T02:02:10.672Z,82.50
2023-02-15T02:05:00.757Z,82.49
2023-02-15T02:07:49.812Z,82.60
2023-02-15T02:10:37.648Z,82.84
2023-02-15T02:13:23.140Z,82.94
2023-02-15T02:16:21.010Z,82.85
2023-02-15T02:19:31.247Z,82.76
2023-02-15T02:22:36.128Z,82.54
2023-02-15T02:25:49.712Z,83.06
2023-02-15T02:29:04.697Z,83.01
2023-02-15T02:31:56.384Z,82.70
2023-02-15T02:34:42.499Z,82.53
2023-02-15T02:37:44.291Z,82.46
2023-02-15T02:40:49.438Z,82.37
2023-02-15T02:43:43.100Z,82.51
2023-02-15T02:46:33.807Z,82.31
2023-02-15T02:49:35.197Z,82.42
2023-02-15T02:52:45.462Z,82.29
2023-02-15T02:55:42.239Z,82.55
2023-02-15T02:58:42.741Z,82.59
2023-02-15T03:01:37.943Z,82.58
2023-02-15T03:04:29.962Z,82.51
2023-02-15T03:07:23.651Z,82.42
2023-02-15T03:10:10.882Z,82.42
2023-02-15T03:12:56.435Z,82.18
2023-02-15T03:16:05.056Z,82.51
2023-02-15T03:18:59.653Z,82.76
2023-02-15T03:22:04.764Z,82.45
2023-02-15T03:24:54.412Z,82.77
2023-02-15T03:27:51.054Z,82.48
2023-02-15T03:30:43.026Z,82.38
2023-02-15T03:33:29.723Z,82.52
2023-02-15T03:36:32.855Z,82.83
2023-02-15T03:39:23.662Z,83.31
2023-02-15T03:42:20.395Z,83.08
2023-02-15T03:45:15.699Z,82.69
2023-02-15T03:48:04.529Z,82.95
2023-02-15T03:51:10.534Z,83.11
2023-02-15T03:53:58.909Z,82.66
2023-02-15T03:57:06.999Z,82.50
2023-02-15T04:00:13.408Z,82.88
2023-02-15T04:03:22.988Z,82.87
2023-02-15T04:06:09.295Z,83.07
2023-02-15T04:09:13.722Z,82.96
2023-02-15T04:12:00.431Z,82.73
2023-02-15T04:15:04.338Z,82.86
2023-02-15T04:17:49.707Z,83.46
2023-02-15T04:20:53.749Z,82.88
2023-02-15T04:23:57.689Z,83.01
2023-02-15T04:26:43.138Z,82.93
2023-02-15T04:29:29.070Z,83.36
2023-02-15T04:32:14.232Z,83.42
2023-02-15T04:34:59.479Z,83.60
2023-02-15T04:37:45.097Z,83.72
2023-02-15T04:40:30.337Z,83.35
2023-02-15T04:43:15.730Z,83.38
2023-02-15T04:46:01.522Z,83.42
2023-02-15T04:48:47.192Z,83.28
2023-02-15T04:51:32.567Z,83.64
2023-02-15T04:54:17.935Z,83.60
2023-02-15T04:57:03.485Z,83.22
2023-02-15T04:59:48.933Z,82.88
2023-02-15T05:02:34.325Z,82.69
2023-02-15T05:05:20.322Z,82.88
2023-02-15T05:08:05.719Z,82.31
2023-02-15T05:10:51.655Z,83.08
2023-02-15T05:13:37.122Z,83.04
2023-02-15T05:16:22.566Z,83.35
2023-02-15T05:19:08.198Z,83.22
2023-02-15T05:21:54.311Z,83.75
2023-02-15T05:25:08.872Z,83.50
2023-02-15T05:28:13.446Z,83.90
2023-02-15T05:31:07.140Z,83.97
2023-02-15T05:33:52.957Z,83.90
2023-02-15T05:36:38.686Z,84.16
2023-02-15T05:39:23.894Z,84.05
2023-02-15T05:42:10.230Z,83.92
2023-02-15T05:44:55.601Z,84.05
2023-02-15T05:47:41.454Z,83.88
2023-02-15T05:50:27.558Z,83.71
2023-02-15T05:53:14.250Z,84.17
2023-02-15T05:56:01.659Z,83.94
2023-02-15T05:58:47.512Z,84.20
2023-02-15T06:01:33.099Z,84.00
2023-02-15T06:04:18.986Z,84.10
2023-02-15T06:07:04.417Z,84.02
2023-02-15T06:09:50.016Z,84.22
2023-02-15T06:12:35.953Z,84.32
2023-02-15T06:15:21.356Z,84.11
2023-02-15T06:18:06.846Z,84.58
2023-02-15T06:20:52.597Z,84.17
2023-02-15T06:23:38.983Z,84.39
2023-02-15T06:26:24.701Z,84.03
2023-02-15T06:29:10.607Z,83.78
2023-02-15T06:31:56.216Z,83.79
2023-02-15T06:34:41.610Z,83.75
2023-02-15T06:37:28.034Z,83.68
2023-02-15T06:40:14.304Z,83.65
2023-02-15T06:43:00.274Z,82.70
2023-02-15T06:45:45.992Z,83.11
2023-02-15T06:48:31.389Z,82.61
2023-02-15T06:51:20.278Z,82.73
2023-02-15T06:54:05.762Z,82.03
2023-02-15T06:56:51.059Z,81.89
2023-02-15T06:59:40.530Z,82.32
2023-02-15T07:02:26.553Z,81.79
2023-02-15T07:05:12.762Z,81.63
2023-02-15T07:08:00.275Z,81.15
2023-02-15T07:10:50.123Z,80.86
2023-02-15T07:13:36.181Z,80.64
2023-02-15T07:16:22.088Z,80.43
2023-02-15T07:19:33.618Z,79.52
2023-02-15T07:22:24.448Z,78.80
2023-02-15T07:25:11.898Z,78.84
2023-02-15T07:28:03.618Z,78.76
2023-02-15T07:30:50.140Z,77.64
2023-02-15T07:33:36.334Z,77.62
2023-02-15T07:36:22.027Z,77.62
2023-02-15T07:39:08.900Z,76.85
2023-02-15T07:41:54.640Z,76.97
2023-02-15T07:44:40.452Z,76.44
2023-02-15T07:47:27.691Z,76.89
2023-02-15T07:50:13.587Z,76.54
2023-02-15T07:53:03.789Z,76.80
2023-02-15T07:55:49.410Z,76.31
2023-02-15T07:58:53.824Z,75.26
2023-02-15T08:01:40.264Z,75.46
2023-02-15T08:04:26.234Z,74.15
2023-02-15T08:07:12.461Z,73.46
2023-02-15T08:10:00.470Z,74.53
2023-02-15T08:12:45.965Z,75.34
2023-02-15T08:15:32.656Z,74.05
2023-02-15T08:18:18.354Z,73.57
2023-02-15T08:21:05.838Z,74.78
2023-02-15T08:23:52.054Z,73.89
2023-02-15T08:26:42.344Z,72.47
2023-02-15T08:29:29.257Z,74.11
2023-02-15T08:32:18.469Z,72.67
2023-02-15T08:35:05.021Z,73.01
2023-02-15T08:37:52.471Z,72.82
2023-02-15T08:40:39.310Z,70.89
2023-02-15T08:43:27.896Z,71.39
2023-02-15T08:46:16.471Z,69.39
2023-02-15T08:52:08.276Z,70.93
2023-02-15T08:54:54.314Z,71.34
2023-02-15T08:57:45.808Z,72.04
2023-02-15T09:00:32.364Z,72.33
2023-02-15T09:03:19.353Z,72.86
2023-02-15T09:06:09.065Z,71.56
2023-02-15T09:11:59.818Z,69.28
2023-02-15T09:14:45.679Z,71.18
2023-02-15T09:17:32.564Z,70.69
2023-02-15T09:20:19.838Z,69.80
2023-02-15T09:23:05.828Z,69.21
2023-02-15T09:25:51.833Z,67.29
2023-02-15T09:28:37.495Z,67.31
2023-02-15T09:31:26.440Z,67.98
2023-02-15T09:34:14.835Z,69.48
2023-02-15T09:37:00.310Z,68.38
2023-02-15T09:39:49.086Z,67.60
2023-02-15T09:42:53.823Z,67.29
2023-02-15T09:45:59.420Z,67.46
2023-02-15T09:48:50.499Z,66.74
2023-02-15T09:51:56.662Z,67.35
2023-02-15T09:55:26.798Z,67.44
2023-02-15T09:58:44.748Z,69.19
2023-02-15T10:02:12.201Z,68.57
2023-02-15T10:05:31.212Z,66.31
2023-02-15T10:08:41.075Z,66.41
2023-02-15T10:11:53.317Z,67.77
2023-02-15T10:14:46.170Z,67.15
2023-02-15T10:17:40.724Z,65.99
2023-02-15T10:20:36.140Z,66.24
2023-02-15T10:23:27.771Z,66.03
2023-02-15T10:26:21.431Z,66.51
2023-02-15T10:29:17.298Z,67.10
2023-02-15T10:32:25.894Z,67.26
2023-02-15T10:35:17.182Z,65.42
2023-02-15T10:38:21.466Z,66.00
2023-02-15T10:41:28.090Z,65.78
2023-02-15T10:44:58.620Z,65.20
2023-02-15T10:47:55.825Z,65.61
2023-02-15T10:50:53.736Z,66.52
2023-02-15T10:54:15.195Z,64.83
2023-02-15T10:57:20.811Z,64.42
2023-02-15T11:00:13.264Z,64.57
2023-02-15T11:03:07.580Z,64.17
2023-02-15T11:06:13.251Z,63.63
2023-02-15T11:09:05.016Z,64.26
2023-02-15T11:11:54.766Z,64.40
2023-02-15T11:14:49.349Z,61.72
2023-02-15T11:17:40.867Z,61.65
2023-02-15T11:20:33.294Z,63.06
2023-02-15T11:23:19.522Z,64.58
2023-02-15T11:26:13.591Z,65.07
2023-02-15T11:29:11.703Z,63.72
2023-02-15T11:32:12.690Z,62.33
2023-02-15T11:35:11.531Z,64.11
2023-02-15T11:38:11.676Z,63.17
2023-02-15T11:41:03.387Z,63.16
2023-02-15T11:44:06.138Z,59.73
2023-02-15T11:46:52.638Z,57.53
2023-02-15T11:49:40.017Z,55.54
2023-02-15T11:52:26.016Z,57.92
2023-02-15T11:55:21.196Z,59.01
2023-02-15T11:58:40.904Z,58.95
2023-02-15T12:01:36.219Z,57.94
2023-02-15T12:04:39.799Z,59.50
2023-02-15T12:07:30.761Z,60.31
2023-02-15T12:10:26.176Z,60.25
2023-02-15T12:13:16.115Z,57.33
2023-02-15T12:16:11.653Z,55.26
2023-02-15T12:19:00.452Z,55.77
2023-02-15T12:21:53.972Z,55.15
2023-02-15T12:24:47.522Z,54.16
2023-02-15T12:27:36.883Z,55.21
2023-02-15T12:30:26.335Z,55.89
2023-02-15T12:33:21.116Z,53.31
2023-02-15T12:36:13.500Z,54.39
2023-02-15T12:39:14.442Z,54.02
2023-02-15T12:42:02.876Z,54.21
2023-02-15T12:45:19.220Z,55.20
2023-02-15T12:48:15.007Z,55.78
2023-02-15T12:51:09.586Z,54.74
2023-02-15T12:53:56.738Z,54.81
2023-02-15T12:56:42.110Z,54.73
2023-02-15T12:59:27.865Z,54.94
2023-02-15T13:02:23.242Z,55.08
2023-02-15T13:05:25.288Z,52.30
2023-02-15T13:08:19.395Z,53.30
2023-02-15T13:11:12.185Z,53.62
2023-02-15T13:14:27.554Z,53.39
2023-02-15T13:17:15.416Z,54.02
2023-02-15T13:20:25.554Z,52.99
2023-02-15T13:23:24.754Z,54.17
2023-02-15T13:26:16.992Z,54.58
2023-02-15T13:29:23.565Z,54.45
2023-02-15T13:32:25.282Z,55.34
2023-02-15T13:35:16.850Z,54.92
2023-02-15T13:38:26.120Z,55.09
2023-02-15T13:41:17.622Z,54.91
2023-02-15T13:44:21.748Z,54.06
2023-02-15T13:47:33.823Z,55.21
2023-02-15T13:50:23.684Z,54.98
2023-02-15T13:53:31.741Z,54.17
2023-02-15T13:56:46.082Z,54.78
2023-02-15T13:59:49.776Z,55.41
2023-02-15T14:02:57.090Z,55.04
2023-02-15T14:05:48.872Z,55.46
2023-02-15T14:08:55.292Z,56.05
2023-02-15T14:12:17.577Z,54.76
2023-02-15T14:15:14.766Z,54.50
2023-02-15T14:18:29.381Z,54.62
2023-02-15T14:21:27.065Z,54.28
2023-02-15T14:24:35.639Z,54.23
2023-02-15T14:27:44.203Z,53.90
2023-02-15T14:30:51.017Z,54.02
2023-02-15T14:33:58.816Z,54.42
2023-02-15T14:36:45.298Z,54.81
2023-02-15T14:40:04.100Z,55.05
2023-02-15T14:43:00.029Z,55.56
2023-02-15T14:45:56.529Z,55.24
2023-02-15T14:48:51.416Z,56.14
2023-02-15T14:51:46.946Z,55.80
2023-02-15T14:54:35.522Z,56.47
2023-02-15T14:57:26.231Z,57.05
2023-02-15T15:00:36.653Z,57.17
2023-02-15T15:03:26.212Z,57.33
2023-02-15T15:06:26.495Z,58.24
2023-02-15T15:09:22.348Z,58.47
2023-02-15T15:12:16.826Z,58.53
2023-02-15T15:15:05.244Z,58.35
2023-02-15T15:18:06.327Z,59.21
2023-02-15T15:20:52.673Z,59.00
2023-02-15T15:23:45.778Z,58.84
2023-02-15T15:26:37.917Z,60.55
2023-02-15T15:29:40.893Z,59.63
2023-02-15T15:32:31.555Z,59.66
2023-02-15T15:35:39.058Z,59.51
2023-02-15T15:38:51.000Z,59.90
2023-02-15T15:41:59.009Z,59.46
2023-02-15T15:45:20.941Z,60.18
2023-02-15T15:48:22.632Z,59.98
2023-02-15T15:51:34.331Z,59.50
2023-02-15T15:54:24.132Z,59.36
2023-02-15T15:57:31.070Z,60.09
2023-02-15T16:00:30.568Z,59.89
2023-02-15T16:03:25.904Z,59.86
2023-02-15T16:06:15.847Z,60.43
2023-02-15T16:09:31.049Z,60.40
2023-02-15T16:12:22.419Z,60.73
2023-02-15T16:15:19.964Z,60.94
2023-02-15T16:18:06.710Z,61.41
2023-02-15T16:20:56.490Z,61.89
2023-02-15T16:23:59.435Z,61.17
2023-02-15T16:26:52.115Z,61.59
2023-02-15T16:29:38.122Z,62.20
2023-02-15T16:32:26.660Z,62.15
2023-02-15T16:35:18.965Z,61.83
2023-02-15T16:38:05.747Z,61.74
2023-02-15T16:41:07.780Z,62.26
2023-02-15T16:44:00.233Z,62.10
2023-02-15T16:46:51.712Z,62.30
2023-02-15T16:49:37.539Z,62.32
2023-02-15T16:52:26.848Z,62.32
2023-02-15T16:55:23.609Z,62.70
2023-02-15T16:58:24.397Z,63.22
2023-02-15T17:01:14.303Z,63.18
2023-02-15T17:04:13.572Z,63.88
2023-02-15T17:07:07.658Z,64.26
2023-02-15T17:10:00.771Z,64.48
2023-02-15T17:12:58.886Z,64.80
2023-02-15T17:16:00.584Z,64.81
2023-02-15T17:18:47.594Z,64.70
2023-02-15T17:21:42.355Z,64.70
2023-02-15T17:24:41.604Z,65.30
2023-02-15T17:27:30.396Z,64.27
2023-02-15T17:30:23.263Z,64.67
2023-02-15T17:33:23.958Z,64.72
2023-02-15T17:36:17.947Z,64.92
2023-02-15T17:39:23.420Z,65.43
2023-02-15T17:42:09.306Z,65.31
2023-02-15T17:44:54.741Z,65.62
2023-02-15T17:47:43.763Z,66.27
2023-02-15T17:50:37.084Z,65.74
2023-02-15T17:53:22.772Z,65.93
2023-02-15T17:56:11.162Z,65.78
2023-02-15T17:58:57.376Z,65.97
2023-02-15T18:02:06.595Z,66.03
2023-02-15T18:05:11.083Z,66.09
2023-02-15T18:08:15.315Z,66.48
2023-02-15T18:11:19.711Z,66.46
2023-02-15T18:14:07.485Z,66.76
2023-02-15T18:16:54.914Z,67.01
2023-02-15T18:19:44.102Z,66.96
2023-02-15T18:22:29.991Z,66.95
2023-02-15T18:25:18.335Z,66.97
2023-02-15T18:28:04.466Z,67.24
2023-02-15T18:30:54.828Z,66.66
2023-02-15T18:33:50.396Z,67.08
2023-02-15T18:36:45.266Z,66.87
2023-02-15T18:39:45.653Z,67.14
2023-02-15T18:42:36.609Z,67.09
2023-02-15T18:45:25.441Z,66.97
2023-02-15T18:48:11.444Z,66.96
2023-02-15T18:50:58.394Z,66.79
2023-02-15T18:53:44.797Z,67.09
2023-02-15T18:56:30.837Z,67.30
2023-02-15T18:59:19.407Z,66.79
2023-02-15T19:02:12.859Z,66.70
2023-02-15T19:05:00.207Z,66.88
2023-02-15T19:07:56.255Z,66.85
2023-02-15T19:10:58.379Z,66.84
2023-02-15T19:13:44.003Z,66.74
2023-02-15T19:16:34.912Z,67.13
2023-02-15T19:19:20.896Z,67.23
2023-02-15T19:22:06.577Z,67.00
2023-02-15T19:24:53.939Z,67.08
2023-02-15T19:27:39.625Z,67.43
2023-02-15T19:30:31.494Z,67.22
2023-02-15T19:33:22.525Z,67.46
2023-02-15T19:36:17.485Z,67.45
2023-02-15T19:39:03.434Z,67.23
2023-02-15T19:41:49.968Z,67.22
2023-02-15T19:44:35.384Z,67.23
2023-02-15T19:47:28.002Z,67.26
2023-02-15T19:50:22.561Z,67.66
2023-02-15T19:53:19.988Z,67.35
2023-02-15T19:56:05.706Z,67.50
2023-02-15T19:58:52.442Z,67.75
2023-02-15T20:01:39.715Z,67.50
2023-02-15T20:04:27.092Z,67.80
2023-02-15T20:07:30.740Z,67.97
2023-02-15T20:10:26.978Z,67.79
2023-02-15T20:13:17.669Z,67.77
2023-02-15T20:16:06.261Z,67.43
2023-02-15T20:18:52.503Z,67.75
2023-02-15T20:21:39.197Z,67.70
2023-02-15T20:24:31.036Z,67.78
2023-02-15T20:27:22.523Z,67.48
2023-02-15T20:30:22.459Z,67.13
2023-02-15T20:33:09.303Z,67.26
2023-02-15T20:35:55.480Z,66.82
2023-02-15T20:38:42.176Z,67.17
2023-02-15T20:41:37.743Z,67.07
2023-02-15T20:44:30.995Z,66.97
2023-02-15T20:47:16.681Z,66.87
2023-02-15T20:50:02.121Z,66.91
2023-02-15T20:52:50.022Z,67.39
2023-02-15T20:55:37.664Z,67.87
2023-02-15T20:58:26.921Z,68.11
2023-02-15T21:01:14.676Z,68.87
2023-02-15T21:04:00.961Z,68.94
2023-02-15T21:06:47.651Z,68.69
2023-02-15T21:09:33.728Z,68.99
2023-02-15T21:12:21.735Z,68.95
2023-02-15T21:15:32.389Z,69.08
2023-02-15T21:18:28.291Z,69.59
2023-02-15T21:21:18.821Z,69.53
2023-02-15T21:24:05.739Z,69.87
2023-02-15T21:26:51.713Z,69.87
2023-02-15T21:29:37.743Z,69.54
2023-02-15T21:32:23.387Z,69.64
2023-02-15T21:35:12.607Z,69.57
2023-02-15T21:37:58.101Z,69.90
2023-02-15T21:40:44.537Z,69.85
2023-02-15T21:43:48.786Z,70.46
2023-02-15T21:46:53.015Z,70.72
2023-02-15T21:49:39.058Z,70.44
2023-02-15T21:52:28.302Z,71.16
2023-02-15T21:55:15.163Z,70.32
2023-02-15T21:58:01.167Z,70.33
2023-02-15T22:00:48.026Z,70.46
2023-02-15T22:03:36.395Z,70.38
2023-02-15T22:06:22.092Z,70.63
2023-02-15T22:09:16.991Z,70.72
2023-02-15T22:12:03.043Z,70.80
2023-02-15T22:14:54.019Z,70.88
2023-02-15T22:17:39.796Z,70.59
2023-02-15T22:20:25.142Z,70.63
2023-02-15T22:23:10.620Z,71.35
2023-02-15T22:26:07.685Z,71.36
2023-02-15T22:28:53.216Z,71.66
2023-02-15T22:31:39.444Z,71.65
2023-02-15T22:34:27.885Z,71.65
2023-02-15T22:37:13.633Z,71.74
2023-02-15T22:39:59.217Z,71.54
2023-02-15T22:42:50.601Z,71.63
2023-02-15T22:45:36.543Z,71.48
2023-02-15T22:48:22.869Z,71.36
2023-02-15T22:51:13.301Z,70.74
2023-02-15T22:53:58.692Z,71.06
2023-02-15T22:56:51.342Z,70.89
2023-02-15T22:59:36.882Z,70.90
2023-02-15T23:02:22.302Z,70.86
2023-02-15T23:05:18.091Z,70.87
2023-02-15T23:08:03.452Z,71.13
2023-02-15T23:10:54.157Z,71.16
2023-02-15T23:13:40.276Z,71.10
2023-02-15T23:16:25.972Z,71.25
2023-02-15T23:19:15.201Z,71.28
2023-02-15T23:22:00.903Z,71.46
2023-02-15T23:24:52.648Z,71.28
2023-02-15T23:27:56.459Z,70.83
2023-02-15T23:30:41.901Z,70.73
2023-02-15T23:33:31.400Z,69.87
2023-02-15T23:36:35.349Z,69.81
2023-02-15T23:39:45.162Z,69.84
2023-02-15T23:42:33.835Z,69.86
2023-02-15T23:45:23.689Z,69.68
2023-02-15T23:48:32.242Z,69.05
2023-02-15T23:51:18.314Z,69.78
2023-02-15T23:54:03.622Z,70.13
2023-02-15T23:57:01.356Z,69.03
2023-02-15T23:59:48.134Z,69.11
